Time;durP1;ratioP1;P1;durP2;ratioP2;P2;SDS_P1;SDS_P2;PMS_P1;PMS_P2;Temp;Humidity;BMP_temperature;BMP_pressure;BME280_temperature;BME280_humidity;BME280_pressure;Samples;Min_cycle;Max_cycle;Signal;HPM_P1;HPM_P2
2023/04/21 00:02:04;;;;;;;1.50;1.30;;;8.60;98.20;;;;;;4986045;28;20611;-73
2023/04/21 00:04:33;;;;;;;1.47;1.17;;;8.60;98.20;;;;;;5002258;28;20867;-74
2023/04/21 00:07:02;;;;;;;1.50;1.20;;;8.70;98.20;;;;;;4994667;28;20488;-73
2023/04/21 00:09:29;;;;;;;1.50;1.10;;;8.70;98.20;;;;;;5016638;28;21096;-74
2023/04/21 00:11:56;;;;;;;1.50;1.20;;;8.70;98.20;;;;;;5034638;28;20471;-73
2023/04/21 00:14:23;;;;;;;1.43;1.10;;;8.70;98.20;;;;;;5037174;28;20501;-74
2023/04/21 00:16:51;;;;;;;1.50;1.10;;;8.70;98.20;;;;;;4995816;28;20480;-74
2023/04/21 00:19:18;;;;;;;1.50;1.20;;;8.70;98.20;;;;;;5006160;28;21054;-74
2023/04/21 00:21:45;;;;;;;1.50;1.20;;;8.60;98.20;;;;;;5008848;28;20489;-74
2023/04/21 00:24:13;;;;;;;3.03;2.83;;;8.60;98.20;;;;;;5025984;28;20807;-74
2023/04/21 00:26:40;;;;;;;1.50;1.27;;;8.60;98.20;;;;;;5010039;28;20522;-74
2023/04/21 00:29:08;;;;;;;1.50;1.10;;;8.60;98.20;;;;;;5019064;28;20504;-74
2023/04/21 00:31:35;;;;;;;1.50;1.10;;;8.60;98.20;;;;;;5022710;28;20491;-74
2023/04/21 00:34:01;;;;;;;1.50;1.27;;;8.60;98.20;;;;;;5045149;28;20465;-74
2023/04/21 00:36:30;;;;;;;1.50;1.20;;;8.60;98.20;;;;;;4990968;28;20480;-73
2023/04/21 00:38:57;;;;;;;1.47;1.10;;;8.60;98.20;;;;;;5010486;28;20817;-74
2023/04/21 00:41:27;;;;;;;1.50;1.33;;;8.60;98.20;;;;;;5032601;28;20880;-74
2023/04/21 00:44:01;;;;;;;1.50;1.20;;;8.60;98.20;;;;;;5053438;28;20457;-74
2023/04/21 00:46:28;;;;;;;1.50;1.20;;;8.70;98.20;;;;;;4993806;28;20488;-74
2023/04/21 00:48:55;;;;;;;1.50;1.20;;;8.70;98.20;;;;;;5007775;28;20492;-74
2023/04/21 00:51:22;;;;;;;1.50;1.10;;;8.70;98.20;;;;;;4993009;23;20482;-80
2023/04/21 00:53:49;;;;;;;1.50;1.20;;;8.70;98.20;;;;;;4960609;28;20855;-80
2023/04/21 00:56:17;;;;;;;1.50;1.10;;;8.70;98.20;;;;;;4967897;28;20477;-80
2023/04/21 00:58:46;;;;;;;1.50;1.30;;;8.70;98.20;;;;;;4998715;28;20473;-80
2023/04/21 01:01:13;;;;;;;1.63;1.37;;;8.70;98.20;;;;;;5001125;28;20471;-80
2023/04/21 01:03:40;;;;;;;1.80;1.70;;;8.60;98.20;;;;;;5098498;28;20470;-80
2023/04/21 01:06:08;;;;;;;1.50;1.20;;;8.60;98.20;;;;;;5070197;28;20658;-79
2023/04/21 01:08:36;;;;;;;1.50;1.30;;;8.60;98.20;;;;;;5096343;28;20579;-81
2023/04/21 01:11:09;;;;;;;1.50;1.10;;;8.60;98.20;;;;;;5075315;28;20481;-80
2023/04/21 01:13:36;;;;;;;1.43;1.10;;;8.60;98.20;;;;;;5097803;28;20514;-80
2023/04/21 01:16:06;;;;;;;1.50;1.30;;;8.60;98.20;;;;;;5075339;28;20468;-80
2023/04/21 01:18:33;;;;;;;1.53;1.43;;;8.60;98.20;;;;;;5095224;28;20951;-79
2023/04/21 01:21:01;;;;;;;1.50;1.20;;;8.60;98.20;;;;;;5075532;28;20461;-79
2023/04/21 01:23:29;;;;;;;1.50;1.20;;;8.60;98.20;;;;;;5098976;28;20457;-80
2023/04/21 01:25:56;;;;;;;1.43;1.10;;;8.70;98.20;;;;;;5075507;28;20978;-79
2023/04/21 01:28:23;;;;;;;1.50;1.17;;;8.70;98.20;;;;;;5094699;28;20465;-80
2023/04/21 01:30:50;;;;;;;1.43;1.10;;;8.80;98.20;;;;;;5069880;28;20882;-79
2023/04/21 01:33:17;;;;;;;1.50;1.20;;;8.80;98.20;;;;;;5095520;28;20453;-81
2023/04/21 01:35:44;;;;;;;1.47;1.10;;;8.80;98.20;;;;;;5085808;28;20807;-78
2023/04/21 01:38:11;;;;;;;1.50;1.40;;;8.80;98.20;;;;;;5069827;28;20966;-78
2023/04/21 01:40:41;;;;;;;1.43;1.13;;;8.80;98.20;;;;;;5079086;28;20454;-78
2023/04/21 01:43:09;;;;;;;1.47;1.10;;;8.90;98.20;;;;;;5056734;28;20504;-78
2023/04/21 01:45:36;;;;;;;1.50;1.20;;;8.90;98.20;;;;;;5083867;28;20752;-78
2023/04/21 01:48:03;;;;;;;1.50;1.20;;;8.90;98.20;;;;;;5058325;28;21029;-79
2023/04/21 01:50:30;;;;;;;1.50;1.20;;;8.90;98.20;;;;;;5079931;28;20485;-79
2023/04/21 01:52:56;;;;;;;1.50;1.20;;;8.90;98.20;;;;;;5057856;28;20488;-79
2023/04/21 01:55:24;;;;;;;1.50;1.20;;;8.90;98.20;;;;;;5083658;28;20465;-78
2023/04/21 01:57:52;;;;;;;1.47;1.20;;;8.90;98.20;;;;;;5059317;28;20473;-79
2023/04/21 02:00:19;;;;;;;1.50;1.20;;;8.90;98.20;;;;;;5084521;28;20453;-78
2023/04/21 02:02:46;;;;;;;1.47;1.10;;;8.90;98.20;;;;;;5057479;28;20481;-78
2023/04/21 02:05:12;;;;;;;1.50;1.30;;;8.90;98.20;;;;;;5079139;28;20456;-78
2023/04/21 02:07:39;;;;;;;1.50;1.13;;;8.90;98.20;;;;;;5061494;28;20472;-78
2023/04/21 02:10:06;;;;;;;1.50;1.10;;;9.00;98.20;;;;;;5079826;28;20499;-78
2023/04/21 02:12:33;;;;;;;1.50;1.20;;;9.00;98.20;;;;;;5063771;28;20489;-78
2023/04/21 02:15:01;;;;;;;1.50;1.20;;;9.00;98.20;;;;;;5083133;28;20460;-78
2023/04/21 02:17:28;;;;;;;1.50;1.30;;;9.00;98.20;;;;;;5064748;28;20500;-78
2023/04/21 02:19:54;;;;;;;1.50;1.20;;;9.00;98.20;;;;;;5086882;28;20465;-78
2023/04/21 02:22:21;;;;;;;1.50;1.20;;;9.00;98.20;;;;;;5067766;28;20485;-78
2023/04/21 02:24:48;;;;;;;1.50;1.20;;;9.00;98.20;;;;;;5085292;28;20521;-78
2023/04/21 02:27:15;;;;;;;1.47;1.10;;;9.00;98.20;;;;;;5068864;28;20900;-78
2023/04/21 02:29:42;;;;;;;1.40;1.10;;;9.00;98.20;;;;;;5083985;28;20499;-78
2023/04/21 02:32:10;;;;;;;1.50;1.10;;;9.00;98.20;;;;;;5086179;28;20483;-78
2023/04/21 02:34:37;;;;;;;1.50;1.20;;;9.00;98.20;;;;;;5093090;28;20475;-78
2023/04/21 02:37:03;;;;;;;1.50;1.30;;;9.00;98.20;;;;;;5071224;28;20768;-78
2023/04/21 02:39:30;;;;;;;1.47;1.10;;;9.00;98.20;;;;;;5080229;28;20450;-78
2023/04/21 02:41:57;;;;;;;1.50;1.10;;;9.00;98.20;;;;;;5070480;28;20481;-78
2023/04/21 02:44:24;;;;;;;1.47;1.10;;;9.00;98.20;;;;;;5083435;28;20465;-78
2023/04/21 02:46:50;;;;;;;1.50;1.10;;;8.90;98.20;;;;;;5072165;28;21035;-78
2023/04/21 02:49:18;;;;;;;1.50;1.20;;;8.90;98.20;;;;;;5077667;28;20495;-78
2023/04/21 02:51:45;;;;;;;1.43;1.10;;;8.90;98.20;;;;;;5066507;28;20481;-78
2023/04/21 02:54:12;;;;;;;1.50;1.20;;;8.80;98.20;;;;;;5087552;28;20456;-78
2023/04/21 02:56:39;;;;;;;1.50;1.20;;;8.80;98.20;;;;;;5073657;28;20492;-78
2023/04/21 02:59:05;;;;;;;1.50;1.10;;;8.80;98.20;;;;;;5083562;28;20995;-78
2023/04/21 03:01:32;;;;;;;1.50;1.10;;;8.70;98.20;;;;;;5070970;28;20489;-78
2023/04/21 03:03:59;;;;;;;1.50;1.20;;;8.70;98.20;;;;;;5076029;28;20957;-79
2023/04/21 03:06:27;;;;;;;1.47;1.10;;;8.70;98.20;;;;;;5076579;28;20481;-79
2023/04/21 03:08:53;;;;;;;1.50;1.20;;;8.70;98.20;;;;;;5076679;28;20808;-78
2023/04/21 03:11:20;;;;;;;1.50;1.20;;;8.60;98.20;;;;;;5075806;28;20488;-78
2023/04/21 03:13:47;;;;;;;1.50;1.20;;;8.60;98.20;;;;;;5072720;28;20842;-78
2023/04/21 03:16:14;;;;;;;1.50;1.10;;;8.50;98.20;;;;;;5077395;28;20512;-78
2023/04/21 03:18:41;;;;;;;1.50;1.20;;;8.40;98.20;;;;;;5074868;28;20464;-78
2023/04/21 03:21:08;;;;;;;1.50;1.10;;;8.40;98.20;;;;;;5073075;28;20480;-78
2023/04/21 03:23:36;;;;;;;1.50;1.10;;;8.30;98.20;;;;;;5073341;28;20848;-78
2023/04/21 03:26:06;;;;;;;1.50;1.30;;;8.30;98.20;;;;;;5076510;28;20460;-78
2023/04/21 03:28:33;;;;;;;1.50;1.20;;;8.30;98.20;;;;;;5071781;28;20468;-79
2023/04/21 03:31:00;;;;;;;1.50;1.13;;;8.30;98.20;;;;;;5078323;28;20480;-77
2023/04/21 03:33:27;;;;;;;1.50;1.20;;;8.30;98.20;;;;;;5071950;28;20984;-77
2023/04/21 03:35:53;;;;;;;1.50;1.30;;;8.20;98.20;;;;;;5078988;28;20456;-78
2023/04/21 03:38:20;;;;;;;1.50;1.20;;;8.20;98.20;;;;;;5071320;28;20457;-78
2023/04/21 03:40:48;;;;;;;1.50;1.20;;;8.20;98.20;;;;;;5083102;28;20453;-77
2023/04/21 03:43:17;;;;;;;1.50;1.17;;;8.20;98.20;;;;;;5083051;28;20469;-78
2023/04/21 03:45:44;;;;;;;1.50;1.23;;;8.20;98.20;;;;;;5078300;28;20457;-78
2023/04/21 03:48:12;;;;;;;1.50;1.10;;;8.10;98.20;;;;;;5072476;28;20473;-78
2023/04/21 03:50:39;;;;;;;1.50;1.20;;;8.10;98.20;;;;;;5089335;28;20489;-78
2023/04/21 03:53:06;;;;;;;1.50;1.30;;;8.10;98.20;;;;;;5059722;28;20489;-78
2023/04/21 03:55:33;;;;;;;1.50;1.20;;;8.10;98.20;;;;;;5090265;28;20976;-78
2023/04/21 03:58:01;;;;;;;1.50;1.17;;;8.10;98.20;;;;;;5060322;28;20488;-78
2023/04/21 04:00:28;;;;;;;1.50;1.20;;;8.00;98.20;;;;;;5085359;28;20453;-78
2023/04/21 04:02:55;;;;;;;1.50;1.20;;;8.00;98.20;;;;;;5091670;28;20487;-79
2023/04/21 04:05:21;;;;;;;1.50;1.20;;;8.00;98.20;;;;;;5085787;28;20487;-78
2023/04/21 04:07:48;;;;;;;1.50;1.40;;;8.00;98.20;;;;;;5086584;28;20488;-79
2023/04/21 04:10:15;;;;;;;1.50;1.20;;;8.00;98.20;;;;;;5080409;28;20507;-79
2023/04/21 04:12:42;;;;;;;1.50;1.20;;;8.00;98.20;;;;;;5091332;28;20586;-79
2023/04/21 04:15:10;;;;;;;1.47;1.17;;;8.00;98.20;;;;;;5083952;28;20466;-79
2023/04/21 04:17:37;;;;;;;1.50;1.20;;;8.00;98.20;;;;;;5086571;28;20767;-79
2023/04/21 04:20:05;;;;;;;1.50;1.30;;;8.00;98.20;;;;;;5083924;28;20453;-79
2023/04/21 04:22:32;;;;;;;1.50;1.20;;;8.00;98.20;;;;;;5079859;28;20537;-79
2023/04/21 04:25:00;;;;;;;1.50;1.20;;;8.00;98.20;;;;;;5076762;28;20468;-80
2023/04/21 04:27:27;;;;;;;1.47;1.17;;;8.00;98.20;;;;;;5085151;28;20531;-79
2023/04/21 04:29:53;;;;;;;1.50;1.27;;;8.00;98.20;;;;;;5074546;28;20673;-79
2023/04/21 04:32:21;;;;;;;1.50;1.20;;;8.00;98.20;;;;;;5086369;28;20515;-79
2023/04/21 04:34:48;;;;;;;1.50;1.20;;;8.00;98.20;;;;;;5086119;28;20464;-78
2023/04/21 04:37:15;;;;;;;1.50;1.30;;;8.00;98.20;;;;;;5078124;28;20472;-79
2023/04/21 04:39:42;;;;;;;1.50;1.20;;;7.90;98.20;;;;;;5081710;28;20518;-79
2023/04/21 04:42:08;;;;;;;1.50;1.40;;;7.90;98.20;;;;;;5067292;28;20877;-79
2023/04/21 04:44:35;;;;;;;1.50;1.20;;;7.90;98.20;;;;;;5081350;28;20535;-78
2023/04/21 04:47:02;;;;;;;1.50;1.20;;;7.90;98.20;;;;;;5080240;28;20886;-79
2023/04/21 04:49:30;;;;;;;1.50;1.20;;;7.90;98.20;;;;;;5089565;28;20468;-78
2023/04/21 04:51:58;;;;;;;1.50;1.17;;;7.90;98.20;;;;;;5081479;28;20489;-79
2023/04/21 04:54:27;;;;;;;1.50;1.20;;;7.90;98.20;;;;;;5078492;28;20465;-79
2023/04/21 04:56:54;;;;;;;1.50;1.20;;;7.90;98.20;;;;;;5078270;28;20511;-79
2023/04/21 04:59:21;;;;;;;1.50;1.20;;;7.90;98.20;;;;;;5086521;28;20607;-79
2023/04/21 05:01:47;;;;;;;1.50;1.20;;;7.90;98.20;;;;;;5081193;28;20891;-79
2023/04/21 05:04:15;;;;;;;1.50;1.10;;;8.00;98.20;;;;;;5088458;28;20596;-79
2023/04/21 05:06:43;;;;;;;1.50;1.30;;;8.00;98.20;;;;;;5081434;28;20475;-79
2023/04/21 05:09:11;;;;;;;1.50;1.20;;;8.00;98.20;;;;;;5086933;28;20458;-79
2023/04/21 05:11:37;;;;;;;1.50;1.20;;;8.00;98.20;;;;;;5079534;28;20487;-78
2023/04/21 05:14:04;;;;;;;1.50;1.10;;;8.00;98.20;;;;;;5093699;28;20963;-79
2023/04/21 05:16:33;;;;;;;1.50;1.20;;;8.10;98.20;;;;;;5080842;28;20483;-79
2023/04/21 05:19:01;;;;;;;1.50;1.10;;;8.10;98.20;;;;;;5091251;28;20924;-79
2023/04/21 05:21:28;;;;;;;1.50;1.20;;;8.20;98.20;;;;;;5081396;28;20486;-79
2023/04/21 05:23:58;;;;;;;1.50;1.30;;;8.20;98.20;;;;;;5092342;28;20461;-79
2023/04/21 05:26:26;;;;;;;1.50;1.20;;;8.20;98.20;;;;;;5066498;28;20486;-79
2023/04/21 05:28:53;;;;;;;1.50;1.20;;;8.30;98.20;;;;;;5071627;28;20937;-79
2023/04/21 05:31:19;;;;;;;1.50;1.30;;;8.30;98.20;;;;;;5073202;28;20476;-78
2023/04/21 05:33:46;;;;;;;1.43;1.10;;;8.30;98.20;;;;;;5090868;28;20459;-82
2023/04/21 05:36:13;;;;;;;12.53;3.83;;;8.30;98.20;;;;;;5071138;28;20838;-79
2023/04/21 05:38:39;;;;;;;1.50;1.20;;;8.30;98.20;;;;;;5100041;28;20465;-79
2023/04/21 05:41:08;;;;;;;1.50;1.20;;;8.40;98.20;;;;;;5072232;28;20488;-78
2023/04/21 05:43:35;;;;;;;1.50;1.23;;;8.40;98.20;;;;;;5097377;28;20456;-78
2023/04/21 05:46:02;;;;;;;1.47;1.10;;;8.40;98.20;;;;;;5076863;28;20461;-79
2023/04/21 05:48:29;;;;;;;1.50;1.20;;;8.40;98.20;;;;;;5092163;28;20461;-78
2023/04/21 05:50:56;;;;;;;1.50;1.20;;;8.40;98.20;;;;;;5068840;28;20852;-79
2023/04/21 05:53:23;;;;;;;1.50;1.10;;;8.50;98.20;;;;;;5096358;28;20886;-78
2023/04/21 05:55:50;;;;;;;1.50;1.30;;;8.50;98.20;;;;;;5072996;28;20506;-78
2023/04/21 05:58:18;;;;;;;1.50;1.20;;;8.50;98.20;;;;;;5102488;28;20747;-78
2023/04/21 06:00:46;;;;;;;1.50;1.30;;;8.50;98.20;;;;;;5091168;28;20460;-79
2023/04/21 06:03:12;;;;;;;1.50;1.30;;;8.50;98.20;;;;;;5071733;28;20562;-78
2023/04/21 06:05:39;;;;;;;1.50;1.10;;;8.50;98.20;;;;;;5086206;28;20452;-80
2023/04/21 06:08:06;;;;;;;1.50;1.13;;;8.60;98.20;;;;;;5090173;28;20467;-80
2023/04/21 06:10:33;;;;;;;1.50;1.20;;;8.60;98.20;;;;;;5074290;28;21029;-79
2023/04/21 06:12:59;;;;;;;1.47;1.10;;;8.60;98.20;;;;;;5065639;28;21031;-79
2023/04/21 06:15:28;;;;;;;1.50;1.20;;;8.70;98.20;;;;;;5087012;28;20464;-79
2023/04/21 06:17:54;;;;;;;1.50;1.20;;;8.80;98.20;;;;;;5091222;28;20475;-79
2023/04/21 06:20:21;;;;;;;1.50;1.30;;;8.80;98.20;;;;;;5091277;28;20452;-79
2023/04/21 06:22:49;;;;;;;1.50;1.13;;;8.90;98.20;;;;;;5068689;28;20476;-79
2023/04/21 06:25:16;;;;;;;1.47;1.13;;;9.00;98.20;;;;;;5090995;28;20510;-79
2023/04/21 06:27:44;;;;;;;1.50;1.13;;;9.00;98.20;;;;;;5067944;28;20476;-79
2023/04/21 06:30:11;;;;;;;1.50;1.40;;;9.10;98.20;;;;;;5082763;28;20480;-79
2023/04/21 06:32:39;;;;;;;1.47;1.00;;;9.10;98.20;;;;;;5072225;28;20489;-78
2023/04/21 06:35:06;;;;;;;1.50;1.10;;;9.30;98.20;;;;;;5085172;28;20483;-79
2023/04/21 06:37:33;;;;;;;1.50;1.20;;;9.40;98.20;;;;;;5069490;28;20477;-79
2023/04/21 06:40:00;;;;;;;1.50;1.20;;;9.50;98.20;;;;;;5084427;28;20461;-78
2023/04/21 06:42:27;;;;;;;1.50;1.20;;;9.70;98.20;;;;;;5059169;28;20518;-79
2023/04/21 06:44:55;;;;;;;1.50;1.10;;;9.80;98.20;;;;;;5082169;28;20676;-78
2023/04/21 06:47:22;;;;;;;1.50;1.10;;;9.90;98.20;;;;;;5079245;28;20904;-79
2023/04/21 06:49:50;;;;;;;1.50;1.20;;;10.10;98.20;;;;;;5084194;28;20469;-78
2023/04/21 06:52:17;;;;;;;1.50;1.10;;;10.10;98.20;;;;;;5088429;28;20491;-78
2023/04/21 06:54:43;;;;;;;1.50;1.10;;;10.20;98.20;;;;;;5084817;28;20456;-78
2023/04/21 06:57:10;;;;;;;1.50;1.10;;;10.30;98.20;;;;;;5069018;28;20485;-78
2023/04/21 06:59:37;;;;;;;1.50;1.10;;;10.40;98.20;;;;;;5080691;28;20468;-79
2023/04/21 07:02:04;;;;;;;1.50;1.00;;;10.50;98.20;;;;;;5075189;28;20480;-79
2023/04/21 07:04:31;;;;;;;1.50;1.20;;;10.60;98.20;;;;;;5081615;28;20774;-79
2023/04/21 07:06:59;;;;;;;1.50;1.17;;;10.70;98.20;;;;;;5069022;28;20476;-79
2023/04/21 07:09:27;;;;;;;1.50;1.10;;;10.70;98.20;;;;;;5082501;28;20848;-79
2023/04/21 07:11:54;;;;;;;1.50;1.17;;;10.80;98.20;;;;;;5075649;28;20488;-79
2023/04/21 07:14:20;;;;;;;1.50;1.00;;;10.90;98.20;;;;;;5085798;28;20460;-80
2023/04/21 07:16:47;;;;;;;1.50;1.00;;;10.90;98.20;;;;;;5067484;28;20482;-79
2023/04/21 07:19:14;;;;;;;1.47;1.00;;;10.80;98.20;;;;;;5076465;28;20465;-80
2023/04/21 07:21:41;;;;;;;1.50;1.10;;;10.70;98.20;;;;;;5081690;28;20495;-79
2023/04/21 07:24:09;;;;;;;1.50;1.10;;;10.60;98.20;;;;;;5093022;28;20460;-79
2023/04/21 07:26:36;;;;;;;1.50;1.10;;;10.70;98.20;;;;;;5066474;28;20580;-79
2023/04/21 07:29:03;;;;;;;1.50;1.10;;;10.70;98.20;;;;;;5080057;28;20976;-79
2023/04/21 07:31:29;;;;;;;1.50;1.10;;;10.80;98.20;;;;;;5071170;28;20488;-79
2023/04/21 07:33:56;;;;;;;2.43;1.93;;;10.80;98.20;;;;;;5078811;28;20989;-79
2023/04/21 07:36:23;;;;;;;1.77;1.67;;;10.80;98.20;;;;;;5072212;28;20717;-79
2023/04/21 07:38:50;;;;;;;1.43;1.00;;;11.00;98.20;;;;;;5077503;28;20461;-80
2023/04/21 07:41:19;;;;;;;1.50;1.10;;;11.10;98.20;;;;;;5070552;28;20496;-79
2023/04/21 07:43:46;;;;;;;1.50;1.00;;;11.20;98.20;;;;;;5074841;28;20469;-78
2023/04/21 07:46:13;;;;;;;1.50;1.10;;;11.30;98.20;;;;;;5068218;28;20482;-79
2023/04/21 07:48:40;;;;;;;1.50;1.10;;;11.40;98.20;;;;;;5077617;28;21386;-79
2023/04/21 07:51:06;;;;;;;1.50;1.20;;;11.50;98.20;;;;;;5066828;28;20481;-78
2023/04/21 07:53:33;;;;;;;1.50;1.00;;;11.80;98.20;;;;;;5081254;28;20464;-79
2023/04/21 07:56:00;;;;;;;1.50;1.00;;;12.00;98.20;;;;;;5073365;28;20460;-79
2023/04/21 07:58:28;;;;;;;1.50;1.00;;;12.10;98.20;;;;;;5077215;28;20960;-78
2023/04/21 08:00:55;;;;;;;1.50;1.20;;;12.20;98.20;;;;;;5073943;28;20483;-79
2023/04/21 08:03:21;;;;;;;1.50;1.00;;;12.10;98.20;;;;;;5077604;28;20465;-78
2023/04/21 08:05:48;;;;;;;1.50;1.00;;;12.00;98.20;;;;;;5071197;28;20465;-78
2023/04/21 08:08:19;;;;;;;1.50;1.00;;;11.90;98.20;;;;;;5076536;28;20460;-79
2023/04/21 08:10:46;;;;;;;1.43;1.00;;;11.90;98.20;;;;;;5084108;28;21014;-80
2023/04/21 08:13:12;;;;;;;2.23;2.03;;;12.10;98.20;;;;;;5070411;28;20473;-79
2023/04/21 08:15:41;;;;;;;1.50;1.10;;;12.30;98.20;;;;;;5079951;28;20460;-79
2023/04/21 08:18:08;;;;;;;1.50;1.10;;;12.50;98.20;;;;;;5061358;28;20477;-80
2023/04/21 08:20:35;;;;;;;1.50;1.00;;;12.50;98.20;;;;;;5077280;28;20460;-79
2023/04/21 08:23:02;;;;;;;1.47;1.00;;;12.50;98.20;;;;;;5086116;28;20487;-80
2023/04/21 08:25:29;;;;;;;1.50;1.10;;;12.40;98.20;;;;;;5067094;23;21020;-73
2023/04/21 08:27:56;;;;;;;1.50;1.10;;;12.40;98.20;;;;;;4985338;28;20676;-74
2023/04/21 08:30:23;;;;;;;1.50;1.00;;;12.40;98.20;;;;;;4988763;28;20991;-75
2023/04/21 08:32:52;;;;;;;1.50;1.10;;;12.40;98.20;;;;;;4982326;28;20484;-75
2023/04/21 08:35:20;;;;;;;1.50;1.00;;;12.30;98.20;;;;;;5001904;28;20595;-74
2023/04/21 08:37:47;;;;;;;1.50;1.00;;;12.20;98.20;;;;;;5005954;28;20508;-75
2023/04/21 08:40:18;;;;;;;1.50;1.20;;;12.20;98.20;;;;;;4998592;28;20953;-75
2023/04/21 08:42:46;;;;;;;1.50;1.10;;;12.40;98.20;;;;;;4970502;28;20891;-74
2023/04/21 08:45:13;;;;;;;1.47;1.00;;;12.50;98.20;;;;;;5000634;28;20520;-74
2023/04/21 08:47:41;;;;;;;1.50;1.10;;;12.40;98.20;;;;;;4984485;28;20941;-75
2023/04/21 08:50:13;;;;;;;1.50;1.00;;;12.40;98.20;;;;;;5000991;28;20465;-74
2023/04/21 08:52:40;;;;;;;1.47;1.00;;;12.40;98.20;;;;;;4988202;28;20836;-74
2023/04/21 08:55:07;;;;;;;1.50;1.00;;;12.60;98.20;;;;;;5000266;28;20999;-75
2023/04/21 08:57:34;;;;;;;2.83;1.93;;;12.70;98.20;;;;;;4987668;28;20523;-75
2023/04/21 09:00:01;;;;;;;1.50;0.93;;;12.80;98.20;;;;;;5001403;28;20468;-75
2023/04/21 09:02:28;;;;;;;1.60;1.13;;;12.80;98.20;;;;;;4990424;28;21112;-75
2023/04/21 09:04:55;;;;;;;1.50;1.00;;;13.00;98.20;;;;;;4997250;28;20492;-75
2023/04/21 09:07:32;;;;;;;1.50;1.00;;;13.10;98.20;;;;;;4985567;28;21266;-75
2023/04/21 09:10:00;;;;;;;1.50;1.00;;;13.30;98.20;;;;;;5006531;28;20505;-74
2023/04/21 09:12:27;;;;;;;1.50;1.00;;;13.50;98.20;;;;;;4977233;28;20574;-76
2023/04/21 09:14:54;;;;;;;1.50;1.00;;;14.00;98.20;;;;;;4998241;28;20468;-75
2023/04/21 09:17:27;;;;;;;1.50;1.00;;;14.40;98.20;;;;;;4986604;28;20484;-75
2023/04/21 09:19:53;;;;;;;1.50;1.00;;;14.40;98.20;;;;;;4994857;28;20491;-76
2023/04/21 09:22:20;;;;;;;1.50;1.00;;;14.50;98.20;;;;;;4990640;28;20483;-76
2023/04/21 09:24:49;;;;;;;1.50;1.10;;;14.70;98.20;;;;;;5003125;28;20464;-75
2023/04/21 09:27:16;;;;;;;1.50;1.40;;;14.80;98.20;;;;;;5004389;28;20803;-78
2023/04/21 09:29:47;;;;;;;1.50;1.00;;;15.00;98.20;;;;;;5007725;28;20464;-77
2023/04/21 09:32:18;;;;;;;2.23;1.57;;;15.10;98.20;;;;;;4993739;28;20476;-76
2023/04/21 09:34:45;;;;;;;1.50;0.90;;;15.10;98.20;;;;;;5005594;28;20460;-75
2023/04/21 09:37:13;;;;;;;1.50;1.00;;;15.20;98.20;;;;;;4990805;28;20480;-76
2023/04/21 09:39:44;;;;;;;1.50;1.00;;;15.20;98.20;;;;;;5007759;28;20495;-77
2023/04/21 09:42:12;;;;;;;1.50;0.90;;;15.20;98.20;;;;;;5007776;28;20476;-76
2023/04/21 09:44:39;;;;;;;1.50;0.90;;;15.30;98.20;;;;;;5028303;28;20830;-77
2023/04/21 09:47:11;;;;;;;1.50;1.10;;;15.50;98.20;;;;;;4999576;28;20525;-76
2023/04/21 09:49:43;;;;;;;1.47;0.90;;;15.40;98.20;;;;;;5004620;28;20464;-77
2023/04/21 09:52:12;;;;;;;1.40;0.90;;;15.50;98.20;;;;;;4995905;28;20479;-76
2023/04/21 09:54:47;;;;;;;1.47;1.00;;;15.50;98.20;;;;;;5005694;28;20982;-76
2023/04/21 09:57:22;;;;;;;1.50;1.20;;;15.70;98.20;;;;;;4994703;28;20491;-77
2023/04/21 09:59:55;;;;;;;1.50;0.90;;;16.00;98.20;;;;;;5008544;28;20463;-77
2023/04/21 10:02:26;;;;;;;1.50;1.10;;;16.20;98.20;;;;;;5001540;28;20472;-77
2023/04/21 10:04:53;;;;;;;1.50;1.10;;;16.10;98.20;;;;;;5009631;28;20457;-77
2023/04/21 10:07:20;;;;;;;5.53;5.17;;;16.00;98.20;;;;;;4974449;28;20482;-77
2023/04/21 10:09:52;;;;;;;1.50;1.00;;;16.00;98.20;;;;;;5000933;28;20460;-77
2023/04/21 10:12:21;;;;;;;1.70;1.50;;;16.10;98.20;;;;;;4991914;28;20489;-77
2023/04/21 10:14:52;;;;;;;1.43;0.90;;;16.20;98.20;;;;;;4998042;28;20464;-78
2023/04/21 10:17:20;;;;;;;1.50;0.90;;;16.50;98.20;;;;;;5004080;28;20480;-77
2023/04/21 10:19:51;;;;;;;1.50;0.90;;;16.60;98.20;;;;;;5001405;28;20541;-77
2023/04/21 10:22:28;;;;;;;1.50;0.90;;;16.70;98.20;;;;;;5004567;28;20487;-77
2023/04/21 10:24:56;;;;;;;1.50;1.00;;;16.80;98.20;;;;;;5000617;28;20509;-77
2023/04/21 10:27:35;;;;;;;1.60;1.27;;;17.00;98.20;;;;;;5003475;28;20476;-78
2023/04/21 10:30:02;;;;;;;1.87;1.67;;;17.30;98.20;;;;;;5009584;28;20486;-78
2023/04/21 10:32:40;;;;;;;1.50;0.90;;;17.50;98.10;;;;;;5017986;28;20491;-77
2023/04/21 10:35:09;;;;;;;1.50;0.90;;;17.90;96.90;;;;;;5003615;28;20976;-74
2023/04/21 10:37:36;;;;;;;1.50;0.93;;;18.20;96.40;;;;;;4995159;28;20487;-79
2023/04/21 10:40:08;;;;;;;1.50;0.90;;;18.50;96.20;;;;;;5004104;28;20547;-76
2023/04/21 10:42:36;;;;;;;1.50;1.00;;;18.70;94.60;;;;;;4981339;28;20509;-76
2023/04/21 10:45:24;;;;;;;1.50;0.90;;;19.10;93.50;;;;;;5014298;28;20487;-76
2023/04/21 10:47:53;;;;;;;1.50;0.90;;;19.20;91.60;;;;;;4989865;28;20531;-76
2023/04/21 10:50:32;;;;;;;2.23;1.13;;;19.20;92.70;;;;;;5005726;28;20464;-74
2023/04/21 10:53:08;;;;;;;1.47;0.90;;;19.20;91.90;;;;;;4994922;28;20488;-76
2023/04/21 10:55:36;;;;;;;1.50;0.87;;;19.10;91.60;;;;;;5007286;28;20484;-76
2023/04/21 10:58:07;;;;;;;1.50;0.90;;;19.50;91.90;;;;;;4985343;28;20940;-74
2023/04/21 11:00:37;;;;;;;1.47;0.90;;;19.80;91.20;;;;;;4993271;28;20472;-74
2023/04/21 11:03:06;;;;;;;1.60;1.10;;;20.10;90.10;;;;;;4993517;28;20537;-75
2023/04/21 11:05:37;;;;;;;1.50;0.90;;;20.30;89.80;;;;;;5003717;28;20487;-76
2023/04/21 11:08:10;;;;;;;1.60;1.40;;;20.40;88.80;;;;;;4981831;28;20485;-74
2023/04/21 11:10:45;;;;;;;1.53;1.13;;;20.00;86.30;;;;;;5008819;28;20864;-77
2023/04/21 11:13:14;;;;;;;1.47;0.90;;;19.90;88.70;;;;;;4980120;28;20491;-75
2023/04/21 11:15:41;;;;;;;1.50;0.90;;;19.80;89.10;;;;;;5007858;28;21004;-77
2023/04/21 11:18:08;;;;;;;1.50;0.90;;;19.60;88.60;;;;;;4994018;28;20483;-76
2023/04/21 11:20:39;;;;;;;1.47;0.90;;;19.50;89.10;;;;;;5007463;28;20472;-78
2023/04/21 11:23:06;;;;;;;1.50;0.90;;;19.30;89.70;;;;;;5000763;28;20472;-78
2023/04/21 11:25:33;;;;;;;1.43;0.90;;;19.30;89.70;;;;;;4996179;28;20500;-76
2023/04/21 11:28:00;;;;;;;1.50;0.97;;;19.30;89.70;;;;;;4996228;28;21005;-77
2023/04/21 11:30:35;;;;;;;1.40;0.90;;;19.60;89.90;;;;;;5013018;28;20484;-77
2023/04/21 11:33:02;;;;;;;1.50;0.90;;;19.90;88.90;;;;;;4996123;28;20654;-77
2023/04/21 11:35:29;;;;;;;1.50;1.00;;;20.00;88.30;;;;;;5004663;28;20487;-76
2023/04/21 11:37:55;;;;;;;1.50;0.90;;;20.00;87.20;;;;;;4986157;28;20480;-76
2023/04/21 11:40:22;;;;;;;1.43;0.90;;;19.90;85.90;;;;;;5004043;28;20870;-77
2023/04/21 11:42:50;;;;;;;1.47;0.90;;;19.80;86.20;;;;;;4984041;28;20487;-77
2023/04/21 11:45:18;;;;;;;1.60;1.30;;;19.90;86.50;;;;;;5008691;28;20488;-74
2023/04/21 11:47:48;;;;;;;1.50;0.90;;;20.10;85.20;;;;;;4988570;28;20488;-75
2023/04/21 11:50:31;;;;;;;1.90;1.43;;;20.40;85.90;;;;;;4998337;28;20468;-75
2023/04/21 11:52:58;;;;;;;1.50;0.90;;;20.00;84.20;;;;;;4988502;28;20741;-75
2023/04/21 11:55:25;;;;;;;1.47;0.90;;;19.80;83.70;;;;;;5003614;28;20495;-75
2023/04/21 11:57:53;;;;;;;1.47;0.90;;;19.60;84.70;;;;;;4986218;28;20475;-74
2023/04/21 12:00:21;;;;;;;1.50;0.90;;;19.60;83.60;;;;;;5029178;28;20468;-75
2023/04/21 12:02:56;;;;;;;1.43;0.90;;;20.00;82.70;;;;;;4990893;28;21026;-76
2023/04/21 12:05:23;;;;;;;1.40;0.90;;;20.00;81.30;;;;;;5033145;28;20850;-73
2023/04/21 12:07:51;;;;;;;1.50;0.90;;;20.00;83.00;;;;;;4996100;28;20495;-74
2023/04/21 12:10:19;;;;;;;1.50;0.90;;;19.90;83.30;;;;;;5026326;28;20459;-75
2023/04/21 12:12:46;;;;;;;1.50;0.90;;;19.80;83.60;;;;;;5006960;28;20488;-75
2023/04/21 12:15:18;;;;;;;1.50;0.90;;;19.60;83.90;;;;;;5062613;28;20492;-74
2023/04/21 12:17:46;;;;;;;1.50;0.90;;;19.30;85.50;;;;;;4991938;28;20522;-74
2023/04/21 12:20:16;;;;;;;1.50;0.90;;;19.50;84.40;;;;;;5044547;28;20753;-76
2023/04/21 12:22:43;;;;;;;1.50;0.80;;;19.80;83.80;;;;;;4988111;28;20485;-75
2023/04/21 12:25:10;;;;;;;1.50;0.90;;;20.10;83.50;;;;;;5037579;28;20884;-76
2023/04/21 12:27:37;;;;;;;1.50;1.00;;;20.00;83.20;;;;;;5010604;28;20557;-76
2023/04/21 12:30:05;;;;;;;1.47;0.93;;;20.20;83.50;;;;;;5041170;28;20465;-76
2023/04/21 12:32:31;;;;;;;3.20;2.03;;;20.50;82.30;;;;;;5006791;28;20482;-75
2023/04/21 12:34:59;;;;;;;1.47;0.90;;;20.60;82.80;;;;;;5010615;28;20468;-74
2023/04/21 12:37:28;;;;;;;1.50;0.90;;;20.70;81.70;;;;;;4985856;28;20973;-75
2023/04/21 12:39:54;;;;;;;1.50;0.90;;;20.50;82.00;;;;;;5036227;28;21115;-76
2023/04/21 12:42:22;;;;;;;1.60;1.10;;;20.20;82.20;;;;;;4995158;28;20886;-75
2023/04/21 12:44:48;;;;;;;1.70;1.20;;;19.90;82.60;;;;;;5018351;28;20727;-74
2023/04/21 12:47:15;;;;;;;1.47;0.90;;;19.70;82.60;;;;;;4998107;28;20488;-75
2023/04/21 12:49:42;;;;;;;1.50;0.90;;;19.50;83.30;;;;;;5025330;28;21223;-76
2023/04/21 12:52:09;;;;;;;1.47;0.90;;;19.10;84.50;;;;;;5004994;28;20996;-76
2023/04/21 12:54:37;;;;;;;1.50;0.90;;;19.00;85.70;;;;;;5038715;28;20468;-76
2023/04/21 12:57:05;;;;;;;1.47;0.90;;;19.10;86.80;;;;;;5005022;28;20488;-75